createdAt,value
2022-11-02T00:01:46.526Z,100435.94
2022-11-02T00:05:48.525Z,100430.19
2022-11-02T00:09:50.382Z,100442.03
2022-11-02T00:13:52.298Z,100425.94
2022-11-02T00:17:57.199Z,100434.16
2022-11-02T00:22:01.921Z,100445.47
2022-11-02T00:26:03.838Z,100451.59
2022-11-02T00:30:06.651Z,100459.34
2022-11-02T00:34:08.623Z,100456.81
2022-11-02T00:38:12.846Z,100455.59
2022-11-02T00:42:14.991Z,100459.91
2022-11-02T00:46:21.065Z,100468.00
2022-11-02T00:50:23.005Z,100472.31
2022-11-02T00:54:28.616Z,100478.41
2022-11-02T00:58:30.628Z,100479.69
2022-11-02T01:02:36.038Z,100467.59
2022-11-02T01:06:38.045Z,100471.16
2022-11-02T01:10:42.759Z,100469.75
2022-11-02T01:14:50.494Z,100461.91
2022-11-02T01:18:53.985Z,100453.41
2022-11-02T01:22:58.103Z,100449.88
2022-11-02T01:27:00.100Z,100455.53
2022-11-02T01:31:02.157Z,100442.78
2022-11-02T01:35:04.395Z,100448.03
2022-11-02T01:39:06.525Z,100438.72
2022-11-02T01:43:28.048Z,100442.28
2022-11-02T01:47:37.965Z,100440.84
2022-11-02T01:52:02.449Z,100444.06
2022-11-02T01:56:05.092Z,100443.50
2022-11-02T02:00:11.561Z,100441.75
2022-11-02T02:04:13.685Z,100455.94
2022-11-02T02:08:19.471Z,100459.34
2022-11-02T02:12:23.844Z,100464.69
2022-11-02T02:16:56.819Z,100457.47
2022-11-02T02:21:16.621Z,100461.03
2022-11-02T02:26:05.160Z,100461.38
2022-11-02T02:30:10.620Z,100440.66
2022-11-02T02:34:20.158Z,100454.78
2022-11-02T02:38:55.507Z,100458.53
2022-11-02T02:43:05.450Z,100454.50
2022-11-02T02:47:17.620Z,100453.56
2022-11-02T02:51:28.902Z,100454.53
2022-11-02T02:55:34.601Z,100440.69
2022-11-02T02:59:46.756Z,100445.88
2022-11-02T03:03:54.934Z,100462.34
2022-11-02T03:08:07.146Z,100452.53
2022-11-02T03:12:34.963Z,100444.13
2022-11-02T03:17:51.940Z,100449.34
2022-11-02T03:22:09.058Z,100455.59
2022-11-02T03:26:23.544Z,100445.69
2022-11-02T03:30:27.945Z,100444.59
2022-11-02T03:34:43.738Z,100454.50
2022-11-02T03:39:02.313Z,100459.25
2022-11-02T03:43:09.035Z,100448.84
2022-11-02T03:47:12.853Z,100461.03
2022-11-02T03:51:23.621Z,100457.63
2022-11-02T03:56:20.348Z,100465.19
2022-11-02T04:00:26.702Z,100465.88
2022-11-02T04:04:28.894Z,100456.56
2022-11-02T04:08:36.819Z,100446.47
2022-11-02T04:12:57.309Z,100452.38
2022-11-02T04:17:17.695Z,100445.53
2022-11-02T04:21:19.567Z,100454.06
2022-11-02T04:25:21.506Z,100463.75
2022-11-02T04:29:23.413Z,100463.28
2022-11-02T04:33:34.662Z,100447.44
2022-11-02T04:37:59.310Z,100456.19
2022-11-02T04:42:01.094Z,100462.09
2022-11-02T04:46:02.836Z,100437.00
2022-11-02T04:50:05.348Z,100423.53
2022-11-02T04:54:07.547Z,100433.94
2022-11-02T04:58:09.480Z,100444.59
2022-11-02T05:02:11.756Z,100437.97
2022-11-02T05:06:13.689Z,100440.06
2022-11-02T05:10:46.936Z,100438.69
2022-11-02T05:14:48.753Z,100435.47
2022-11-02T05:18:50.627Z,100433.69
2022-11-02T05:22:52.589Z,100441.00
2022-11-02T05:26:54.442Z,100439.94
2022-11-02T05:30:59.314Z,100444.53
2022-11-02T05:35:01.284Z,100455.44
2022-11-02T05:39:05.987Z,100444.34
2022-11-02T05:43:10.030Z,100433.22
2022-11-02T05:47:11.887Z,100442.44
2022-11-02T05:51:13.754Z,100442.19
2022-11-02T05:55:15.749Z,100441.50
2022-11-02T05:59:17.700Z,100448.38
2022-11-02T06:03:20.409Z,100449.19
2022-11-02T06:07:23.115Z,100440.19
2022-11-02T06:11:27.623Z,100448.81
2022-11-02T06:15:33.855Z,100445.75
2022-11-02T06:19:44.531Z,100464.47
2022-11-02T06:24:04.071Z,100464.47
2022-11-02T06:28:06.178Z,100466.84
2022-11-02T06:32:11.086Z,100461.28
2022-11-02T06:36:28.644Z,100465.66
2022-11-02T06:40:30.509Z,100465.63
2022-11-02T06:44:32.368Z,100453.88
2022-11-02T06:48:35.454Z,100452.88
2022-11-02T06:52:44.106Z,100453.59
2022-11-02T06:56:46.497Z,100444.94
2022-11-02T07:00:48.537Z,100447.97
2022-11-02T07:04:50.517Z,100458.78
2022-11-02T07:08:52.384Z,100451.88
2022-11-02T07:12:55.517Z,100453.09
2022-11-02T07:16:57.380Z,100453.16
2022-11-02T07:20:59.971Z,100458.50
2022-11-02T07:25:01.911Z,100451.34
2022-11-02T07:29:03.989Z,100459.09
2022-11-02T07:33:06.340Z,100445.59
2022-11-02T07:37:25.662Z,100425.78
2022-11-02T07:41:27.634Z,100438.16
2022-11-02T07:45:49.064Z,100417.47
2022-11-02T07:49:59.829Z,100428.69
2022-11-02T07:54:24.284Z,100417.66
2022-11-02T07:58:27.035Z,100421.72
2022-11-02T08:02:28.977Z,100409.81
2022-11-02T08:06:30.931Z,100411.22
2022-11-02T08:10:37.083Z,100401.00
2022-11-02T08:14:56.637Z,100419.28
2022-11-02T08:19:01.604Z,100421.59
2022-11-02T08:23:04.248Z,100437.16
2022-11-02T08:27:06.450Z,100431.16
2022-11-02T08:31:16.805Z,100437.81
2022-11-02T08:35:18.773Z,100429.50
2022-11-02T08:39:20.730Z,100417.59
2022-11-02T08:43:25.162Z,100419.72
2022-11-02T08:47:27.076Z,100412.38
2022-11-02T08:51:29.829Z,100417.88
2022-11-02T08:55:32.004Z,100421.22
2022-11-02T08:59:33.854Z,100417.09
2022-11-02T09:03:35.835Z,100412.00
2022-11-02T09:07:38.027Z,100423.19
2022-11-02T09:11:40.112Z,100418.59
2022-11-02T09:15:42.458Z,100430.59
2022-11-02T09:19:44.397Z,100431.41
2022-11-02T09:23:50.547Z,100461.38
2022-11-02T09:27:58.967Z,100438.78
2022-11-02T09:32:00.944Z,100457.41
2022-11-02T09:36:04.774Z,100463.81
2022-11-02T09:40:07.218Z,100458.88
2022-11-02T09:44:16.818Z,100473.38
2022-11-02T09:48:39.243Z,100495.22
2022-11-02T09:52:41.138Z,100471.84
2022-11-02T09:56:43.118Z,100466.09
2022-11-02T10:01:07.672Z,100473.31
2022-11-02T10:05:27.568Z,100485.84
2022-11-02T10:09:50.604Z,100487.97
2022-11-02T10:14:06.171Z,100487.75
2022-11-02T10:18:13.867Z,100495.78
2022-11-02T10:22:25.261Z,100472.88
2022-11-02T10:31:27.476Z,100480.38
2022-11-02T10:42:36.529Z,100456.59
2022-11-02T11:25:28.229Z,100471.16
2022-11-02T11:30:59.904Z,100470.34
2022-11-02T11:35:16.733Z,100506.78
2022-11-02T11:39:43.766Z,100486.38
2022-11-02T11:48:53.376Z,100491.28
2022-11-02T11:58:40.883Z,100455.75
2022-11-02T12:09:46.649Z,100459.97
2022-11-02T12:14:06.910Z,100472.56
2022-11-02T12:18:32.941Z,100476.47
2022-11-02T12:22:58.988Z,100437.00
2022-11-02T12:27:30.797Z,100432.75
2022-11-02T12:32:10.278Z,100442.66
2022-11-02T12:37:10.326Z,100452.00
2022-11-02T12:41:13.258Z,100449.28
2022-11-02T12:46:37.007Z,100459.13
2022-11-02T12:51:29.197Z,100469.09
2022-11-02T12:55:55.648Z,100476.69
2022-11-02T13:00:28.180Z,100467.34
2022-11-02T13:05:05.777Z,100442.44
2022-11-02T13:09:16.512Z,100448.09
2022-11-02T13:13:40.219Z,100442.69
2022-11-02T13:18:00.800Z,100475.00
2022-11-02T13:22:04.069Z,100433.09
2022-11-02T13:26:42.585Z,100472.22
2022-11-02T13:31:13.256Z,100455.66
2022-11-02T13:35:50.537Z,100475.78
2022-11-02T13:46:22.606Z,100478.50
2022-11-02T13:57:24.056Z,100481.47
2022-11-02T15:16:51.376Z,100467.88
2022-11-02T15:21:19.407Z,100468.00
2022-11-02T15:25:26.831Z,100478.47
2022-11-02T15:29:51.581Z,100488.94
2022-11-02T15:34:03.879Z,100486.59
2022-11-02T15:38:27.982Z,100493.38
2022-11-02T15:43:20.947Z,100503.81
2022-11-02T15:47:33.393Z,100510.19
2022-11-02T15:52:18.065Z,100511.41
2022-11-02T15:56:34.258Z,100513.16
2022-11-02T16:00:36.233Z,100519.53
2022-11-02T16:04:42.179Z,100526.44
2022-11-02T16:08:44.961Z,100528.09
2022-11-02T16:13:07.915Z,100546.97
2022-11-02T16:17:31.134Z,100543.84
2022-11-02T16:26:51.884Z,100548.78
2022-11-02T16:32:34.537Z,100555.06
2022-11-02T16:36:47.584Z,100564.50
2022-11-02T16:40:49.732Z,100557.00
2022-11-02T16:45:00.848Z,100562.53
2022-11-02T16:49:24.165Z,100568.94
2022-11-02T16:54:03.195Z,100568.72
2022-11-02T16:58:27.258Z,100577.41
2022-11-02T17:02:41.003Z,100590.25
2022-11-02T17:06:43.144Z,100598.81
2022-11-02T17:10:46.297Z,100593.31
2022-11-02T17:14:48.702Z,100606.41
2022-11-02T17:18:50.634Z,100601.75
2022-11-02T17:23:09.196Z,100590.56
2022-11-02T17:27:39.150Z,100602.13
2022-11-02T17:31:46.890Z,100600.22
2022-11-02T17:35:54.643Z,100591.13
2022-11-02T17:40:17.007Z,100584.44
2022-11-02T17:44:46.919Z,100602.22
2022-11-02T17:54:57.194Z,100611.97
2022-11-02T17:59:11.312Z,100603.00
2022-11-02T18:03:29.896Z,100603.97
2022-11-02T18:08:00.000Z,100613.59
2022-11-02T18:12:21.405Z,100606.41
2022-11-02T18:17:22.309Z,100608.00
2022-11-02T18:21:37.573Z,100602.47
2022-11-02T18:25:59.332Z,100599.84
2022-11-02T18:30:04.846Z,100599.41
2022-11-02T18:34:28.548Z,100594.13
2022-11-02T18:38:39.568Z,100587.81
2022-11-02T18:47:28.312Z,100600.06
2022-11-02T19:32:11.830Z,100611.31
2022-11-02T19:42:10.518Z,100596.41
2022-11-02T19:47:58.385Z,100595.41
2022-11-02T21:36:44.627Z,100666.81
2022-11-02T21:40:49.072Z,100667.97
2022-11-02T21:45:01.663Z,100671.41
2022-11-02T21:49:15.121Z,100671.78
2022-11-02T21:53:20.779Z,100679.47
2022-11-02T21:57:22.867Z,100666.06
2022-11-02T22:01:50.822Z,100672.47
2022-11-02T22:05:58.149Z,100684.22
2022-11-02T22:14:29.358Z,100666.22
2022-11-02T22:18:35.899Z,100664.09
2022-11-02T22:22:37.801Z,100658.13
2022-11-02T22:26:39.970Z,100673.19
2022-11-02T22:30:41.918Z,100669.91
2022-11-02T22:34:54.898Z,100665.22
2022-11-02T22:39:13.913Z,100663.22
2022-11-02T22:43:15.814Z,100663.31
2022-11-02T22:47:17.980Z,100670.63
2022-11-02T22:51:21.092Z,100670.91
2022-11-02T22:55:24.207Z,100670.34
2022-11-02T22:59:34.961Z,100678.88
2022-11-02T23:03:37.118Z,100671.31
2022-11-02T23:07:39.092Z,100666.63
2022-11-02T23:11:43.160Z,100673.00
2022-11-02T23:15:45.155Z,100680.28
2022-11-02T23:19:47.076Z,100679.13
2022-11-02T23:24:09.547Z,100670.56
2022-11-02T23:28:29.919Z,100673.75
2022-11-02T23:32:32.119Z,100662.09
2022-11-02T23:36:36.994Z,100684.91
2022-11-02T23:40:42.617Z,100682.41
2022-11-02T23:44:50.835Z,100683.22
2022-11-02T23:48:54.985Z,100667.50
2022-11-02T23:53:15.382Z,100659.09
2022-11-02T23:57:18.643Z,100665.28
